sensor_id;sensor_type;location;lat;lon;timestamp;P1;durP1;ratioP1;P2;durP2;ratioP2
18443;SDS011;9350;53.176;8.194;2023-08-12T00:00:01;17.02;;;8.70;;
18443;SDS011;9350;53.176;8.194;2023-08-12T00:02:34;18.58;;;8.65;;
18443;SDS011;9350;53.176;8.194;2023-08-12T00:05:01;19.65;;;10.15;;
18443;SDS011;9350;53.176;8.194;2023-08-12T00:07:28;12.57;;;8.18;;
18443;SDS011;9350;53.176;8.194;2023-08-12T00:09:55;22.48;;;10.63;;
18443;SDS011;9350;53.176;8.194;2023-08-12T00:12:23;15.50;;;8.82;;
18443;SDS011;9350;53.176;8.194;2023-08-12T00:14:50;18.30;;;9.25;;
18443;SDS011;9350;53.176;8.194;2023-08-12T00:17:17;19.83;;;9.05;;
18443;SDS011;9350;53.176;8.194;2023-08-12T00:19:44;22.05;;;10.82;;
18443;SDS011;9350;53.176;8.194;2023-08-12T00:22:11;21.13;;;10.18;;
18443;SDS011;9350;53.176;8.194;2023-08-12T00:24:38;22.55;;;10.93;;
18443;SDS011;9350;53.176;8.194;2023-08-12T00:27:05;16.08;;;8.93;;
18443;SDS011;9350;53.176;8.194;2023-08-12T00:29:35;20.77;;;9.55;;
18443;SDS011;9350;53.176;8.194;2023-08-12T00:32:02;20.75;;;8.93;;
18443;SDS011;9350;53.176;8.194;2023-08-12T00:34:29;16.55;;;7.90;;
18443;SDS011;9350;53.176;8.194;2023-08-12T00:36:56;18.40;;;8.40;;
18443;SDS011;9350;53.176;8.194;2023-08-12T00:39:23;20.58;;;8.02;;
18443;SDS011;9350;53.176;8.194;2023-08-12T00:41:50;19.90;;;9.57;;
18443;SDS011;9350;53.176;8.194;2023-08-12T00:44:16;15.27;;;8.20;;
18443;SDS011;9350;53.176;8.194;2023-08-12T00:46:45;20.33;;;8.85;;
18443;SDS011;9350;53.176;8.194;2023-08-12T00:49:12;15.65;;;8.50;;
18443;SDS011;9350;53.176;8.194;2023-08-12T00:51:39;17.48;;;8.60;;
18443;SDS011;9350;53.176;8.194;2023-08-12T00:54:08;16.55;;;7.80;;
18443;SDS011;9350;53.176;8.194;2023-08-12T00:56:37;14.50;;;6.57;;
18443;SDS011;9350;53.176;8.194;2023-08-12T00:59:04;16.95;;;6.72;;
18443;SDS011;9350;53.176;8.194;2023-08-12T01:01:33;18.55;;;7.80;;
18443;SDS011;9350;53.176;8.194;2023-08-12T01:04:03;14.10;;;7.63;;
18443;SDS011;9350;53.176;8.194;2023-08-12T01:06:30;17.17;;;7.93;;
18443;SDS011;9350;53.176;8.194;2023-08-12T01:08:58;16.02;;;8.00;;
18443;SDS011;9350;53.176;8.194;2023-08-12T01:11:26;15.80;;;8.23;;
18443;SDS011;9350;53.176;8.194;2023-08-12T01:14:00;16.65;;;7.63;;
18443;SDS011;9350;53.176;8.194;2023-08-12T01:16:33;15.93;;;8.60;;
18443;SDS011;9350;53.176;8.194;2023-08-12T01:19:06;16.80;;;8.18;;
18443;SDS011;9350;53.176;8.194;2023-08-12T01:21:36;13.63;;;7.47;;
18443;SDS011;9350;53.176;8.194;2023-08-12T01:24:11;12.45;;;7.88;;
18443;SDS011;9350;53.176;8.194;2023-08-12T01:26:37;16.25;;;7.97;;
18443;SDS011;9350;53.176;8.194;2023-08-12T01:29:04;15.48;;;7.90;;
18443;SDS011;9350;53.176;8.194;2023-08-12T01:31:31;17.05;;;8.00;;
18443;SDS011;9350;53.176;8.194;2023-08-12T01:34:05;15.35;;;7.97;;
18443;SDS011;9350;53.176;8.194;2023-08-12T01:36:38;16.05;;;8.23;;
18443;SDS011;9350;53.176;8.194;2023-08-12T01:39:06;18.40;;;9.80;;
18443;SDS011;9350;53.176;8.194;2023-08-12T01:41:37;19.27;;;9.80;;
18443;SDS011;9350;53.176;8.194;2023-08-12T01:44:04;17.40;;;9.88;;
18443;SDS011;9350;53.176;8.194;2023-08-12T01:46:31;17.48;;;10.50;;
18443;SDS011;9350;53.176;8.194;2023-08-12T01:48:58;24.75;;;10.85;;
18443;SDS011;9350;53.176;8.194;2023-08-12T01:51:25;15.73;;;10.23;;
18443;SDS011;9350;53.176;8.194;2023-08-12T01:53:52;21.27;;;11.35;;
18443;SDS011;9350;53.176;8.194;2023-08-12T01:56:19;17.85;;;10.50;;
18443;SDS011;9350;53.176;8.194;2023-08-12T01:58:47;17.02;;;11.38;;
18443;SDS011;9350;53.176;8.194;2023-08-12T02:01:14;17.92;;;12.60;;
18443;SDS011;9350;53.176;8.194;2023-08-12T02:03:40;20.20;;;12.25;;
18443;SDS011;9350;53.176;8.194;2023-08-12T02:06:07;19.98;;;11.70;;
18443;SDS011;9350;53.176;8.194;2023-08-12T02:08:34;20.33;;;12.90;;
18443;SDS011;9350;53.176;8.194;2023-08-12T02:11:01;19.23;;;12.65;;
18443;SDS011;9350;53.176;8.194;2023-08-12T02:13:27;19.92;;;12.77;;
18443;SDS011;9350;53.176;8.194;2023-08-12T02:15:56;20.88;;;12.77;;
18443;SDS011;9350;53.176;8.194;2023-08-12T02:18:22;17.70;;;12.57;;
18443;SDS011;9350;53.176;8.194;2023-08-12T02:20:49;18.55;;;12.95;;
18443;SDS011;9350;53.176;8.194;2023-08-12T02:23:16;19.58;;;12.85;;
18443;SDS011;9350;53.176;8.194;2023-08-12T02:25:43;15.30;;;12.55;;
18443;SDS011;9350;53.176;8.194;2023-08-12T02:28:10;17.42;;;12.57;;
18443;SDS011;9350;53.176;8.194;2023-08-12T02:30:36;21.58;;;12.43;;
18443;SDS011;9350;53.176;8.194;2023-08-12T02:33:05;17.50;;;11.07;;
18443;SDS011;9350;53.176;8.194;2023-08-12T02:35:32;19.98;;;11.30;;
18443;SDS011;9350;53.176;8.194;2023-08-12T02:37:59;17.67;;;10.85;;
18443;SDS011;9350;53.176;8.194;2023-08-12T02:40:25;13.95;;;10.32;;
18443;SDS011;9350;53.176;8.194;2023-08-12T02:42:52;19.00;;;10.38;;
18443;SDS011;9350;53.176;8.194;2023-08-12T02:45:19;13.60;;;9.73;;
18443;SDS011;9350;53.176;8.194;2023-08-12T02:47:46;14.52;;;9.93;;
18443;SDS011;9350;53.176;8.194;2023-08-12T02:50:14;13.98;;;9.07;;
18443;SDS011;9350;53.176;8.194;2023-08-12T02:52:41;12.90;;;9.00;;
18443;SDS011;9350;53.176;8.194;2023-08-12T02:55:08;11.85;;;9.20;;
18443;SDS011;9350;53.176;8.194;2023-08-12T02:57:35;13.95;;;8.77;;
18443;SDS011;9350;53.176;8.194;2023-08-12T03:00:02;13.90;;;9.43;;
18443;SDS011;9350;53.176;8.194;2023-08-12T03:02:30;13.45;;;8.85;;
18443;SDS011;9350;53.176;8.194;2023-08-12T03:04:57;12.80;;;8.60;;
18443;SDS011;9350;53.176;8.194;2023-08-12T03:07:25;14.07;;;8.90;;
18443;SDS011;9350;53.176;8.194;2023-08-12T03:09:52;14.60;;;8.35;;
18443;SDS011;9350;53.176;8.194;2023-08-12T03:12:19;14.15;;;8.00;;
18443;SDS011;9350;53.176;8.194;2023-08-12T03:14:45;12.93;;;8.27;;
18443;SDS011;9350;53.176;8.194;2023-08-12T03:17:12;15.38;;;9.15;;
18443;SDS011;9350;53.176;8.194;2023-08-12T03:19:39;10.45;;;7.90;;
18443;SDS011;9350;53.176;8.194;2023-08-12T03:22:06;15.10;;;8.00;;
18443;SDS011;9350;53.176;8.194;2023-08-12T03:24:34;12.48;;;7.85;;
18443;SDS011;9350;53.176;8.194;2023-08-12T03:27:01;11.77;;;7.53;;
18443;SDS011;9350;53.176;8.194;2023-08-12T03:29:27;13.18;;;8.40;;
18443;SDS011;9350;53.176;8.194;2023-08-12T03:31:54;10.15;;;7.43;;
18443;SDS011;9350;53.176;8.194;2023-08-12T03:34:21;10.48;;;7.32;;
18443;SDS011;9350;53.176;8.194;2023-08-12T03:36:48;10.50;;;7.05;;
18443;SDS011;9350;53.176;8.194;2023-08-12T03:39:15;12.98;;;7.93;;
18443;SDS011;9350;53.176;8.194;2023-08-12T03:41:43;9.20;;;7.50;;
18443;SDS011;9350;53.176;8.194;2023-08-12T03:44:10;12.20;;;7.25;;
18443;SDS011;9350;53.176;8.194;2023-08-12T03:46:37;11.48;;;6.90;;
18443;SDS011;9350;53.176;8.194;2023-08-12T03:49:04;10.55;;;7.13;;
18443;SDS011;9350;53.176;8.194;2023-08-12T03:51:31;9.32;;;6.60;;
18443;SDS011;9350;53.176;8.194;2023-08-12T03:53:58;9.05;;;7.15;;
18443;SDS011;9350;53.176;8.194;2023-08-12T03:56:24;9.32;;;6.47;;
18443;SDS011;9350;53.176;8.194;2023-08-12T03:58:53;9.60;;;6.15;;
18443;SDS011;9350;53.176;8.194;2023-08-12T04:01:19;9.15;;;6.60;;
18443;SDS011;9350;53.176;8.194;2023-08-12T04:03:46;9.68;;;6.95;;
18443;SDS011;9350;53.176;8.194;2023-08-12T04:06:13;8.55;;;6.50;;
18443;SDS011;9350;53.176;8.194;2023-08-12T04:08:40;7.22;;;6.18;;
18443;SDS011;9350;53.176;8.194;2023-08-12T04:11:07;9.98;;;6.28;;
18443;SDS011;9350;53.176;8.194;2023-08-12T04:13:33;11.55;;;7.15;;
18443;SDS011;9350;53.176;8.194;2023-08-12T04:16:02;10.00;;;6.75;;
18443;SDS011;9350;53.176;8.194;2023-08-12T04:18:29;9.15;;;6.65;;
18443;SDS011;9350;53.176;8.194;2023-08-12T04:20:55;8.90;;;6.55;;
18443;SDS011;9350;53.176;8.194;2023-08-12T04:23:22;10.68;;;6.72;;
18443;SDS011;9350;53.176;8.194;2023-08-12T04:25:49;9.70;;;6.40;;
18443;SDS011;9350;53.176;8.194;2023-08-12T04:28:18;11.95;;;7.00;;
18443;SDS011;9350;53.176;8.194;2023-08-12T04:30:45;7.85;;;6.57;;
18443;SDS011;9350;53.176;8.194;2023-08-12T04:33:17;9.48;;;6.50;;
18443;SDS011;9350;53.176;8.194;2023-08-12T04:35:44;10.48;;;6.55;;
18443;SDS011;9350;53.176;8.194;2023-08-12T04:38:12;9.05;;;6.38;;
18443;SDS011;9350;53.176;8.194;2023-08-12T04:40:39;9.80;;;6.57;;
18443;SDS011;9350;53.176;8.194;2023-08-12T04:43:07;11.77;;;6.80;;
18443;SDS011;9350;53.176;8.194;2023-08-12T04:45:34;10.27;;;6.55;;
18443;SDS011;9350;53.176;8.194;2023-08-12T04:48:00;14.25;;;7.05;;
18443;SDS011;9350;53.176;8.194;2023-08-12T04:50:30;7.82;;;6.60;;
18443;SDS011;9350;53.176;8.194;2023-08-12T04:52:59;9.73;;;6.50;;
18443;SDS011;9350;53.176;8.194;2023-08-12T04:55:26;10.93;;;6.95;;
18443;SDS011;9350;53.176;8.194;2023-08-12T04:57:53;10.57;;;6.88;;
18443;SDS011;9350;53.176;8.194;2023-08-12T05:00:20;9.23;;;6.03;;
18443;SDS011;9350;53.176;8.194;2023-08-12T05:02:47;9.20;;;6.47;;
18443;SDS011;9350;53.176;8.194;2023-08-12T05:05:14;10.38;;;6.50;;
18443;SDS011;9350;53.176;8.194;2023-08-12T05:07:43;8.60;;;5.53;;
18443;SDS011;9350;53.176;8.194;2023-08-12T05:10:13;9.40;;;6.82;;
18443;SDS011;9350;53.176;8.194;2023-08-12T05:12:40;9.95;;;6.38;;
18443;SDS011;9350;53.176;8.194;2023-08-12T05:15:08;11.93;;;6.63;;
18443;SDS011;9350;53.176;8.194;2023-08-12T05:17:35;8.90;;;6.00;;
18443;SDS011;9350;53.176;8.194;2023-08-12T05:20:02;9.65;;;6.60;;
18443;SDS011;9350;53.176;8.194;2023-08-12T05:22:29;8.77;;;6.97;;
18443;SDS011;9350;53.176;8.194;2023-08-12T05:24:58;10.15;;;6.95;;
18443;SDS011;9350;53.176;8.194;2023-08-12T05:27:24;11.90;;;6.85;;
18443;SDS011;9350;53.176;8.194;2023-08-12T05:29:51;11.35;;;6.88;;
18443;SDS011;9350;53.176;8.194;2023-08-12T05:32:18;9.65;;;7.05;;
18443;SDS011;9350;53.176;8.194;2023-08-12T05:34:45;10.38;;;7.30;;
18443;SDS011;9350;53.176;8.194;2023-08-12T05:37:12;11.25;;;7.38;;
18443;SDS011;9350;53.176;8.194;2023-08-12T05:39:38;11.85;;;8.00;;
18443;SDS011;9350;53.176;8.194;2023-08-12T05:42:07;15.57;;;7.85;;
18443;SDS011;9350;53.176;8.194;2023-08-12T05:44:33;16.10;;;8.70;;
18443;SDS011;9350;53.176;8.194;2023-08-12T05:47:00;13.43;;;8.63;;
18443;SDS011;9350;53.176;8.194;2023-08-12T05:49:27;15.50;;;8.75;;
18443;SDS011;9350;53.176;8.194;2023-08-12T05:51:55;12.15;;;8.77;;
18443;SDS011;9350;53.176;8.194;2023-08-12T05:54:22;15.57;;;9.35;;
18443;SDS011;9350;53.176;8.194;2023-08-12T05:56:49;12.73;;;9.93;;
18443;SDS011;9350;53.176;8.194;2023-08-12T05:59:17;15.30;;;10.57;;
18443;SDS011;9350;53.176;8.194;2023-08-12T06:01:44;18.25;;;11.27;;
18443;SDS011;9350;53.176;8.194;2023-08-12T06:04:10;13.23;;;9.88;;
18443;SDS011;9350;53.176;8.194;2023-08-12T06:06:37;15.07;;;9.70;;
18443;SDS011;9350;53.176;8.194;2023-08-12T06:09:04;12.73;;;9.10;;
18443;SDS011;9350;53.176;8.194;2023-08-12T06:11:31;14.60;;;9.85;;
18443;SDS011;9350;53.176;8.194;2023-08-12T06:13:58;17.50;;;10.05;;
18443;SDS011;9350;53.176;8.194;2023-08-12T06:16:26;13.20;;;9.23;;
18443;SDS011;9350;53.176;8.194;2023-08-12T06:18:53;13.23;;;9.15;;
18443;SDS011;9350;53.176;8.194;2023-08-12T06:21:19;14.65;;;8.90;;
18443;SDS011;9350;53.176;8.194;2023-08-12T06:23:46;10.18;;;7.97;;
18443;SDS011;9350;53.176;8.194;2023-08-12T06:26:13;13.05;;;8.48;;
18443;SDS011;9350;53.176;8.194;2023-08-12T06:28:40;12.13;;;8.82;;
18443;SDS011;9350;53.176;8.194;2023-08-12T06:31:07;12.15;;;8.82;;
18443;SDS011;9350;53.176;8.194;2023-08-12T06:33:35;12.90;;;9.20;;
18443;SDS011;9350;53.176;8.194;2023-08-12T06:36:02;11.30;;;8.23;;
18443;SDS011;9350;53.176;8.194;2023-08-12T06:38:29;12.07;;;7.65;;
18443;SDS011;9350;53.176;8.194;2023-08-12T06:40:55;11.02;;;7.45;;
18443;SDS011;9350;53.176;8.194;2023-08-12T06:43:22;13.20;;;8.05;;
18443;SDS011;9350;53.176;8.194;2023-08-12T06:45:49;12.40;;;7.30;;
18443;SDS011;9350;53.176;8.194;2023-08-12T06:48:16;9.82;;;8.02;;
18443;SDS011;9350;53.176;8.194;2023-08-12T06:50:44;11.05;;;8.35;;
18443;SDS011;9350;53.176;8.194;2023-08-12T06:53:11;11.70;;;7.28;;
18443;SDS011;9350;53.176;8.194;2023-08-12T06:55:43;10.43;;;8.00;;
18443;SDS011;9350;53.176;8.194;2023-08-12T06:58:10;8.77;;;7.13;;
18443;SDS011;9350;53.176;8.194;2023-08-12T07:00:37;10.40;;;7.50;;
18443;SDS011;9350;53.176;8.194;2023-08-12T07:03:04;13.48;;;8.05;;
18443;SDS011;9350;53.176;8.194;2023-08-12T07:05:31;11.93;;;7.32;;
18443;SDS011;9350;53.176;8.194;2023-08-12T07:07:59;10.95;;;7.25;;
18443;SDS011;9350;53.176;8.194;2023-08-12T07:10:26;10.82;;;6.72;;
18443;SDS011;9350;53.176;8.194;2023-08-12T07:12:53;9.35;;;7.05;;
18443;SDS011;9350;53.176;8.194;2023-08-12T07:15:20;10.55;;;7.72;;
18443;SDS011;9350;53.176;8.194;2023-08-12T07:17:47;11.13;;;7.82;;
18443;SDS011;9350;53.176;8.194;2023-08-12T07:20:13;11.23;;;8.75;;
18443;SDS011;9350;53.176;8.194;2023-08-12T07:22:40;12.75;;;8.52;;
18443;SDS011;9350;53.176;8.194;2023-08-12T07:25:09;14.68;;;9.73;;
18443;SDS011;9350;53.176;8.194;2023-08-12T07:27:36;14.95;;;9.02;;
18443;SDS011;9350;53.176;8.194;2023-08-12T07:30:03;14.57;;;9.75;;
18443;SDS011;9350;53.176;8.194;2023-08-12T07:32:31;13.60;;;10.07;;
18443;SDS011;9350;53.176;8.194;2023-08-12T07:34:57;16.70;;;12.00;;
18443;SDS011;9350;53.176;8.194;2023-08-12T07:37:25;15.68;;;10.95;;
18443;SDS011;9350;53.176;8.194;2023-08-12T07:39:52;14.93;;;10.82;;
18443;SDS011;9350;53.176;8.194;2023-08-12T07:42:20;14.35;;;11.38;;
18443;SDS011;9350;53.176;8.194;2023-08-12T07:44:46;16.17;;;13.50;;
18443;SDS011;9350;53.176;8.194;2023-08-12T07:47:13;18.73;;;14.98;;
18443;SDS011;9350;53.176;8.194;2023-08-12T07:49:40;21.02;;;15.38;;
18443;SDS011;9350;53.176;8.194;2023-08-12T07:52:07;19.67;;;14.38;;
18443;SDS011;9350;53.176;8.194;2023-08-12T07:54:34;24.88;;;17.05;;
18443;SDS011;9350;53.176;8.194;2023-08-12T07:57:01;18.40;;;15.63;;
18443;SDS011;9350;53.176;8.194;2023-08-12T07:59:30;17.27;;;15.10;;
18443;SDS011;9350;53.176;8.194;2023-08-12T08:01:56;21.65;;;14.32;;
18443;SDS011;9350;53.176;8.194;2023-08-12T08:04:23;17.27;;;13.73;;
18443;SDS011;9350;53.176;8.194;2023-08-12T08:06:50;17.48;;;13.52;;
18443;SDS011;9350;53.176;8.194;2023-08-12T08:09:17;15.98;;;12.82;;
18443;SDS011;9350;53.176;8.194;2023-08-12T08:11:44;15.35;;;10.77;;
18443;SDS011;9350;53.176;8.194;2023-08-12T08:14:10;15.88;;;10.82;;
18443;SDS011;9350;53.176;8.194;2023-08-12T08:16:39;15.15;;;10.45;;
18443;SDS011;9350;53.176;8.194;2023-08-12T08:19:06;14.50;;;9.98;;
18443;SDS011;9350;53.176;8.194;2023-08-12T08:21:34;13.77;;;10.45;;
18443;SDS011;9350;53.176;8.194;2023-08-12T08:24:01;14.00;;;9.75;;
18443;SDS011;9350;53.176;8.194;2023-08-12T08:26:28;16.52;;;10.10;;
18443;SDS011;9350;53.176;8.194;2023-08-12T08:28:55;15.13;;;10.80;;
18443;SDS011;9350;53.176;8.194;2023-08-12T08:31:22;12.88;;;9.70;;
18443;SDS011;9350;53.176;8.194;2023-08-12T08:33:50;13.00;;;9.60;;
18443;SDS011;9350;53.176;8.194;2023-08-12T08:36:16;15.55;;;10.80;;
18443;SDS011;9350;53.176;8.194;2023-08-12T08:38:43;15.35;;;10.15;;
18443;SDS011;9350;53.176;8.194;2023-08-12T08:41:10;15.23;;;10.15;;
18443;SDS011;9350;53.176;8.194;2023-08-12T08:43:37;21.75;;;11.73;;
18443;SDS011;9350;53.176;8.194;2023-08-12T08:46:09;19.48;;;11.55;;
18443;SDS011;9350;53.176;8.194;2023-08-12T08:48:39;21.48;;;11.02;;
18443;SDS011;9350;53.176;8.194;2023-08-12T08:51:08;19.40;;;11.52;;
18443;SDS011;9350;53.176;8.194;2023-08-12T08:53:37;13.75;;;10.85;;
18443;SDS011;9350;53.176;8.194;2023-08-12T08:56:04;16.02;;;11.93;;
18443;SDS011;9350;53.176;8.194;2023-08-12T08:58:32;15.68;;;11.15;;
18443;SDS011;9350;53.176;8.194;2023-08-12T09:00:59;12.40;;;11.10;;
18443;SDS011;9350;53.176;8.194;2023-08-12T09:03:27;16.83;;;11.45;;
18443;SDS011;9350;53.176;8.194;2023-08-12T09:05:54;13.63;;;10.30;;
18443;SDS011;9350;53.176;8.194;2023-08-12T09:08:23;13.43;;;10.20;;
18443;SDS011;9350;53.176;8.194;2023-08-12T09:10:52;13.68;;;10.45;;
18443;SDS011;9350;53.176;8.194;2023-08-12T09:13:19;17.25;;;10.30;;
18443;SDS011;9350;53.176;8.194;2023-08-12T09:15:46;14.43;;;10.30;;
18443;SDS011;9350;53.176;8.194;2023-08-12T09:18:13;13.82;;;9.88;;
18443;SDS011;9350;53.176;8.194;2023-08-12T09:20:42;15.95;;;11.00;;
18443;SDS011;9350;53.176;8.194;2023-08-12T09:23:09;13.88;;;10.52;;
18443;SDS011;9350;53.176;8.194;2023-08-12T09:25:40;14.30;;;10.98;;
18443;SDS011;9350;53.176;8.194;2023-08-12T09:28:08;16.45;;;12.02;;
18443;SDS011;9350;53.176;8.194;2023-08-12T09:30:37;21.60;;;11.95;;
18443;SDS011;9350;53.176;8.194;2023-08-12T09:33:05;15.55;;;12.45;;
18443;SDS011;9350;53.176;8.194;2023-08-12T09:35:33;20.33;;;12.75;;
18443;SDS011;9350;53.176;8.194;2023-08-12T09:38:05;16.35;;;13.73;;
18443;SDS011;9350;53.176;8.194;2023-08-12T09:40:33;19.45;;;14.15;;
18443;SDS011;9350;53.176;8.194;2023-08-12T09:43:02;22.13;;;14.70;;
18443;SDS011;9350;53.176;8.194;2023-08-12T09:45:30;20.88;;;16.17;;
18443;SDS011;9350;53.176;8.194;2023-08-12T09:47:58;20.13;;;16.52;;
18443;SDS011;9350;53.176;8.194;2023-08-12T09:50:25;22.02;;;16.20;;
18443;SDS011;9350;53.176;8.194;2023-08-12T09:52:53;23.45;;;16.45;;
18443;SDS011;9350;53.176;8.194;2023-08-12T09:55:22;23.05;;;16.77;;
18443;SDS011;9350;53.176;8.194;2023-08-12T09:57:51;22.30;;;16.45;;
18443;SDS011;9350;53.176;8.194;2023-08-12T10:00:20;23.85;;;17.67;;
18443;SDS011;9350;53.176;8.194;2023-08-12T10:02:49;25.75;;;19.05;;
18443;SDS011;9350;53.176;8.194;2023-08-12T10:05:19;22.70;;;17.88;;
18443;SDS011;9350;53.176;8.194;2023-08-12T10:07:49;25.90;;;17.58;;
18443;SDS011;9350;53.176;8.194;2023-08-12T10:10:15;23.13;;;17.92;;
18443;SDS011;9350;53.176;8.194;2023-08-12T10:12:43;21.45;;;17.75;;
18443;SDS011;9350;53.176;8.194;2023-08-12T10:15:10;27.90;;;20.23;;
18443;SDS011;9350;53.176;8.194;2023-08-12T10:17:39;27.13;;;19.38;;
18443;SDS011;9350;53.176;8.194;2023-08-12T10:20:07;24.52;;;19.17;;
18443;SDS011;9350;53.176;8.194;2023-08-12T10:22:35;25.02;;;20.50;;
18443;SDS011;9350;53.176;8.194;2023-08-12T10:25:05;26.83;;;20.58;;
18443;SDS011;9350;53.176;8.194;2023-08-12T10:27:34;32.60;;;22.58;;
18443;SDS011;9350;53.176;8.194;2023-08-12T10:30:03;30.63;;;22.98;;
18443;SDS011;9350;53.176;8.194;2023-08-12T10:32:30;30.02;;;23.48;;
18443;SDS011;9350;53.176;8.194;2023-08-12T10:34:59;33.22;;;23.55;;
18443;SDS011;9350;53.176;8.194;2023-08-12T10:37:30;32.08;;;24.38;;
18443;SDS011;9350;53.176;8.194;2023-08-12T10:39:58;31.63;;;23.80;;
18443;SDS011;9350;53.176;8.194;2023-08-12T10:42:40;34.13;;;24.73;;
18443;SDS011;9350;53.176;8.194;2023-08-12T10:45:08;31.67;;;24.23;;
18443;SDS011;9350;53.176;8.194;2023-08-12T10:47:39;33.00;;;24.92;;
18443;SDS011;9350;53.176;8.194;2023-08-12T10:50:17;33.30;;;24.25;;
18443;SDS011;9350;53.176;8.194;2023-08-12T10:52:45;30.40;;;23.90;;
18443;SDS011;9350;53.176;8.194;2023-08-12T10:55:16;29.48;;;22.58;;
18443;SDS011;9350;53.176;8.194;2023-08-12T10:57:43;31.33;;;24.00;;
18443;SDS011;9350;53.176;8.194;2023-08-12T11:00:11;29.60;;;23.40;;
18443;SDS011;9350;53.176;8.194;2023-08-12T11:02:40;30.60;;;23.00;;
18443;SDS011;9350;53.176;8.194;2023-08-12T11:05:11;31.08;;;23.38;;
18443;SDS011;9350;53.176;8.194;2023-08-12T11:07:40;30.38;;;23.40;;
18443;SDS011;9350;53.176;8.194;2023-08-12T11:10:12;29.20;;;22.30;;
18443;SDS011;9350;53.176;8.194;2023-08-12T11:12:41;28.33;;;21.38;;
18443;SDS011;9350;53.176;8.194;2023-08-12T11:15:08;24.88;;;20.52;;
18443;SDS011;9350;53.176;8.194;2023-08-12T11:17:37;27.65;;;21.08;;
18443;SDS011;9350;53.176;8.194;2023-08-12T11:20:05;25.45;;;20.73;;
18443;SDS011;9350;53.176;8.194;2023-08-12T11:22:35;25.50;;;20.63;;
18443;SDS011;9350;53.176;8.194;2023-08-12T11:25:06;24.40;;;19.73;;
18443;SDS011;9350;53.176;8.194;2023-08-12T11:27:40;21.10;;;17.90;;
18443;SDS011;9350;53.176;8.194;2023-08-12T11:30:09;23.75;;;17.65;;
18443;SDS011;9350;53.176;8.194;2023-08-12T11:32:37;20.23;;;16.75;;
18443;SDS011;9350;53.176;8.194;2023-08-12T11:35:05;16.70;;;14.85;;
18443;SDS011;9350;53.176;8.194;2023-08-12T11:37:33;20.33;;;15.98;;
18443;SDS011;9350;53.176;8.194;2023-08-12T11:40:01;20.73;;;16.38;;
18443;SDS011;9350;53.176;8.194;2023-08-12T11:42:30;19.13;;;15.18;;
18443;SDS011;9350;53.176;8.194;2023-08-12T11:44:57;20.30;;;16.02;;
18443;SDS011;9350;53.176;8.194;2023-08-12T11:47:24;19.77;;;15.93;;
18443;SDS011;9350;53.176;8.194;2023-08-12T11:49:51;18.02;;;15.57;;
18443;SDS011;9350;53.176;8.194;2023-08-12T11:52:19;18.33;;;15.57;;
18443;SDS011;9350;53.176;8.194;2023-08-12T11:54:45;17.83;;;14.85;;
18443;SDS011;9350;53.176;8.194;2023-08-12T11:57:14;18.75;;;15.05;;
18443;SDS011;9350;53.176;8.194;2023-08-12T11:59:42;16.10;;;13.65;;
18443;SDS011;9350;53.176;8.194;2023-08-12T12:02:09;18.38;;;14.35;;
18443;SDS011;9350;53.176;8.194;2023-08-12T12:04:37;15.55;;;13.02;;
18443;SDS011;9350;53.176;8.194;2023-08-12T12:07:03;16.25;;;13.75;;
18443;SDS011;9350;53.176;8.194;2023-08-12T12:09:43;15.18;;;13.57;;
18443;SDS011;9350;53.176;8.194;2023-08-12T12:12:10;16.48;;;13.93;;
18443;SDS011;9350;53.176;8.194;2023-08-12T12:14:37;17.20;;;13.70;;
18443;SDS011;9350;53.176;8.194;2023-08-12T12:17:08;15.70;;;13.77;;
18443;SDS011;9350;53.176;8.194;2023-08-12T12:19:35;15.55;;;13.27;;
18443;SDS011;9350;53.176;8.194;2023-08-12T12:22:03;15.48;;;13.25;;
18443;SDS011;9350;53.176;8.194;2023-08-12T12:24:30;15.05;;;13.10;;
18443;SDS011;9350;53.176;8.194;2023-08-12T12:26:57;14.18;;;12.60;;
18443;SDS011;9350;53.176;8.194;2023-08-12T12:29:24;13.88;;;12.43;;
18443;SDS011;9350;53.176;8.194;2023-08-12T12:31:50;16.05;;;12.63;;
18443;SDS011;9350;53.176;8.194;2023-08-12T12:34:18;15.82;;;13.35;;
18443;SDS011;9350;53.176;8.194;2023-08-12T12:36:45;12.07;;;10.88;;
18443;SDS011;9350;53.176;8.194;2023-08-12T12:39:12;14.75;;;12.90;;
18443;SDS011;9350;53.176;8.194;2023-08-12T12:41:38;14.25;;;12.77;;
18443;SDS011;9350;53.176;8.194;2023-08-12T12:44:05;14.48;;;12.65;;
18443;SDS011;9350;53.176;8.194;2023-08-12T12:46:32;14.73;;;12.35;;
18443;SDS011;9350;53.176;8.194;2023-08-12T12:48:58;13.43;;;11.82;;
18443;SDS011;9350;53.176;8.194;2023-08-12T12:51:26;14.43;;;11.63;;
18443;SDS011;9350;53.176;8.194;2023-08-12T12:53:54;12.50;;;10.30;;
18443;SDS011;9350;53.176;8.194;2023-08-12T12:56:20;11.20;;;10.10;;
18443;SDS011;9350;53.176;8.194;2023-08-12T12:58:47;8.70;;;7.88;;
18443;SDS011;9350;53.176;8.194;2023-08-12T13:01:14;7.60;;;6.78;;
18443;SDS011;9350;53.176;8.194;2023-08-12T13:03:41;11.38;;;7.78;;
18443;SDS011;9350;53.176;8.194;2023-08-12T13:06:07;9.32;;;8.52;;
18443;SDS011;9350;53.176;8.194;2023-08-12T13:08:35;8.35;;;7.60;;
18443;SDS011;9350;53.176;8.194;2023-08-12T13:11:02;8.98;;;8.05;;
18443;SDS011;9350;53.176;8.194;2023-08-12T13:13:29;8.35;;;7.65;;
18443;SDS011;9350;53.176;8.194;2023-08-12T13:15:55;8.82;;;7.30;;
18443;SDS011;9350;53.176;8.194;2023-08-12T13:18:22;8.50;;;7.68;;
18443;SDS011;9350;53.176;8.194;2023-08-12T13:20:49;8.10;;;6.65;;
18443;SDS011;9350;53.176;8.194;2023-08-12T13:23:15;5.78;;;5.15;;
18443;SDS011;9350;53.176;8.194;2023-08-12T13:25:43;2.85;;;2.65;;
18443;SDS011;9350;53.176;8.194;2023-08-12T13:28:10;6.55;;;2.40;;
18443;SDS011;9350;53.176;8.194;2023-08-12T13:30:37;1.42;;;1.33;;
18443;SDS011;9350;53.176;8.194;2023-08-12T13:33:04;2.28;;;0.85;;
18443;SDS011;9350;53.176;8.194;2023-08-12T13:35:31;2.20;;;0.50;;
18443;SDS011;9350;53.176;8.194;2023-08-12T13:37:57;1.35;;;0.40;;
18443;SDS011;9350;53.176;8.194;2023-08-12T13:40:24;0.50;;;0.50;;
18443;SDS011;9350;53.176;8.194;2023-08-12T13:42:52;0.70;;;0.70;;
18443;SDS011;9350;53.176;8.194;2023-08-12T13:45:19;0.65;;;0.65;;
18443;SDS011;9350;53.176;8.194;2023-08-12T13:47:46;0.50;;;0.50;;
18443;SDS011;9350;53.176;8.194;2023-08-12T13:50:13;0.82;;;0.75;;
18443;SDS011;9350;53.176;8.194;2023-08-12T13:52:39;0.93;;;0.80;;
18443;SDS011;9350;53.176;8.194;2023-08-12T13:55:06;0.85;;;0.85;;
18443;SDS011;9350;53.176;8.194;2023-08-12T13:57:34;1.02;;;0.95;;
18443;SDS011;9350;53.176;8.194;2023-08-12T14:00:02;1.00;;;1.00;;
18443;SDS011;9350;53.176;8.194;2023-08-12T14:02:34;1.80;;;1.10;;
18443;SDS011;9350;53.176;8.194;2023-08-12T14:05:01;1.40;;;1.30;;
18443;SDS011;9350;53.176;8.194;2023-08-12T14:07:28;1.10;;;1.10;;
18443;SDS011;9350;53.176;8.194;2023-08-12T14:09:55;1.08;;;1.08;;
18443;SDS011;9350;53.176;8.194;2023-08-12T14:12:21;1.02;;;1.02;;
18443;SDS011;9350;53.176;8.194;2023-08-12T14:14:48;1.05;;;1.05;;
18443;SDS011;9350;53.176;8.194;2023-08-12T14:17:16;1.38;;;1.15;;
18443;SDS011;9350;53.176;8.194;2023-08-12T14:19:44;3.05;;;1.13;;
18443;SDS011;9350;53.176;8.194;2023-08-12T14:22:13;1.10;;;1.10;;
18443;SDS011;9350;53.176;8.194;2023-08-12T14:24:40;1.00;;;1.00;;
18443;SDS011;9350;53.176;8.194;2023-08-12T14:27:08;1.42;;;1.17;;
18443;SDS011;9350;53.176;8.194;2023-08-12T14:29:35;3.28;;;1.00;;
18443;SDS011;9350;53.176;8.194;2023-08-12T14:32:02;1.98;;;1.20;;
18443;SDS011;9350;53.176;8.194;2023-08-12T14:34:31;1.40;;;1.30;;
18443;SDS011;9350;53.176;8.194;2023-08-12T14:36:57;1.23;;;1.23;;
18443;SDS011;9350;53.176;8.194;2023-08-12T14:39:26;1.25;;;1.25;;
18443;SDS011;9350;53.176;8.194;2023-08-12T14:41:53;1.27;;;1.27;;
18443;SDS011;9350;53.176;8.194;2023-08-12T14:44:20;1.25;;;1.25;;
18443;SDS011;9350;53.176;8.194;2023-08-12T14:46:46;1.77;;;1.40;;